createdAt,value
2018-01-27T00:00:41.772Z,28.30
2018-01-27T00:01:41.760Z,26.90
2018-01-27T00:02:41.716Z,27.20
2018-01-27T00:03:41.688Z,27.60
2018-01-27T00:04:41.657Z,27.40
2018-01-27T00:05:41.628Z,27.80
2018-01-27T00:06:41.596Z,27.10
2018-01-27T00:07:41.824Z,27.30
2018-01-27T00:08:41.538Z,25.90
2018-01-27T00:09:41.505Z,27.30
2018-01-27T00:10:41.478Z,26.20
2018-01-27T00:11:41.446Z,26.70
2018-01-27T00:12:41.430Z,26.10
2018-01-27T00:13:41.395Z,27.70
2018-01-27T00:14:41.360Z,25.50
2018-01-27T00:15:41.336Z,25.30
2018-01-27T00:16:41.304Z,25.40
2018-01-27T00:17:41.273Z,28.10
2018-01-27T00:18:41.243Z,26.60
2018-01-27T00:19:41.566Z,26.50
2018-01-27T00:20:41.183Z,24.20
2018-01-27T00:21:41.149Z,25.30
2018-01-27T00:22:41.134Z,24.70
2018-01-27T00:23:41.100Z,25.70
2018-01-27T00:24:41.064Z,27.70
2018-01-27T00:25:41.034Z,27.10
2018-01-27T00:26:41.001Z,27.60
2018-01-27T00:27:40.975Z,26.90
2018-01-27T00:28:40.947Z,28.10
2018-01-27T00:29:40.918Z,26.60
2018-01-27T00:30:40.889Z,26.30
2018-01-27T00:31:40.857Z,28.80
2018-01-27T00:32:40.844Z,24.50
2018-01-27T00:33:40.799Z,29.90
2018-01-27T00:34:40.770Z,30.50
2018-01-27T00:35:40.744Z,30.60
2018-01-27T00:36:40.712Z,29.40
2018-01-27T00:37:40.978Z,29.90
2018-01-27T00:38:40.654Z,32.60
2018-01-27T00:39:40.622Z,31.20
2018-01-27T00:40:40.586Z,32.00
2018-01-27T00:41:40.559Z,32.80
2018-01-27T00:42:40.531Z,32.40
2018-01-27T00:43:40.507Z,31.90
2018-01-27T00:44:40.475Z,34.50
2018-01-27T00:45:40.444Z,34.40
2018-01-27T00:46:40.418Z,29.70
2018-01-27T00:47:40.390Z,30.10
2018-01-27T00:48:40.357Z,30.40
2018-01-27T00:49:40.626Z,30.60
2018-01-27T00:50:40.298Z,31.10
2018-01-27T00:51:40.268Z,29.60
2018-01-27T00:52:40.234Z,31.10
2018-01-27T00:53:40.207Z,31.80
2018-01-27T00:54:40.173Z,30.70
2018-01-27T00:55:40.445Z,30.40
2018-01-27T00:56:40.119Z,28.90
2018-01-27T00:57:40.088Z,32.00
2018-01-27T00:58:40.057Z,32.50
2018-01-27T00:59:40.037Z,32.80
2018-01-27T01:00:39.994Z,29.10
2018-01-27T01:01:39.976Z,32.70
2018-01-27T01:02:39.946Z,33.10
2018-01-27T01:03:39.910Z,31.90
2018-01-27T01:04:39.879Z,33.40
2018-01-27T01:05:39.848Z,33.10
2018-01-27T01:06:39.824Z,32.80
2018-01-27T01:07:39.789Z,31.90
2018-01-27T01:08:39.762Z,31.40
2018-01-27T01:09:39.739Z,34.50
2018-01-27T01:10:39.700Z,33.20
2018-01-27T01:11:39.668Z,30.40
2018-01-27T01:12:39.644Z,31.70
2018-01-27T01:13:39.869Z,33.20
2018-01-27T01:14:39.589Z,33.30
2018-01-27T01:15:39.556Z,32.30
2018-01-27T01:16:39.522Z,32.00
2018-01-27T01:17:39.492Z,31.50
2018-01-27T01:18:39.469Z,33.50
2018-01-27T01:19:39.443Z,34.90
2018-01-27T01:20:39.402Z,29.90
2018-01-27T01:21:39.379Z,32.50
2018-01-27T01:22:39.353Z,34.60
2018-01-27T01:23:39.314Z,32.60
2018-01-27T01:24:39.290Z,31.60
2018-01-27T01:25:39.560Z,33.30
2018-01-27T01:26:39.232Z,33.00
2018-01-27T01:27:39.197Z,27.90
2018-01-27T01:28:39.169Z,34.60
2018-01-27T01:29:39.148Z,35.70
2018-01-27T01:30:39.111Z,36.70
2018-01-27T01:31:39.081Z,35.20
2018-01-27T01:32:39.048Z,34.20
2018-01-27T01:33:39.023Z,37.00
2018-01-27T01:34:38.991Z,33.70
2018-01-27T01:35:38.964Z,33.90
2018-01-27T01:36:38.927Z,35.40
2018-01-27T01:37:38.895Z,34.60
2018-01-27T01:38:38.866Z,35.10
2018-01-27T01:39:38.837Z,34.70
2018-01-27T01:40:38.813Z,37.80
2018-01-27T01:41:38.782Z,34.00
2018-01-27T01:42:38.745Z,36.60
2018-01-27T01:43:38.720Z,37.90
2018-01-27T01:44:38.691Z,37.00
2018-01-27T01:45:38.667Z,36.10
2018-01-27T01:46:38.637Z,37.40
2018-01-27T01:47:38.911Z,39.40
2018-01-27T01:48:38.571Z,35.60
2018-01-27T01:49:38.545Z,33.00
2018-01-27T01:50:38.513Z,38.00
2018-01-27T01:51:38.486Z,39.40
2018-01-27T01:52:38.454Z,37.90
2018-01-27T01:53:38.723Z,37.90
2018-01-27T01:54:38.395Z,40.10
2018-01-27T01:55:38.362Z,40.50
2018-01-27T01:56:38.334Z,39.90
2018-01-27T01:57:38.310Z,38.80
2018-01-27T01:58:38.273Z,40.40
2018-01-27T01:59:38.551Z,37.60
2018-01-27T02:00:38.217Z,40.80
2018-01-27T02:01:38.191Z,43.80
2018-01-27T02:02:38.164Z,44.00
2018-01-27T02:03:38.139Z,43.60
2018-01-27T02:04:38.092Z,44.60
2018-01-27T02:05:38.069Z,47.40
2018-01-27T02:06:38.041Z,39.80
2018-01-27T02:07:38.020Z,40.60
2018-01-27T02:08:37.978Z,42.80
2018-01-27T02:09:37.950Z,43.60
2018-01-27T02:10:37.917Z,45.30
2018-01-27T02:11:37.888Z,44.90
2018-01-27T02:12:37.866Z,43.90
2018-01-27T02:13:37.828Z,40.40
2018-01-27T02:14:37.798Z,41.10
2018-01-27T02:15:37.766Z,44.00
2018-01-27T02:16:37.739Z,44.80
2018-01-27T02:17:37.967Z,45.70
2018-01-27T02:18:37.679Z,41.60
2018-01-27T02:19:37.653Z,41.40
2018-01-27T02:20:37.618Z,42.40
2018-01-27T02:21:37.589Z,39.40
2018-01-27T02:22:37.561Z,38.70
2018-01-27T02:23:37.532Z,41.00
2018-01-27T02:24:37.499Z,41.00
2018-01-27T02:25:37.467Z,40.80
2018-01-27T02:26:37.445Z,38.90
2018-01-27T02:27:37.409Z,43.80
2018-01-27T02:28:37.394Z,41.60
2018-01-27T02:29:37.362Z,39.90
2018-01-27T02:30:37.322Z,37.60
2018-01-27T02:31:37.301Z,41.10
2018-01-27T02:32:37.265Z,42.60
2018-01-27T02:33:37.235Z,41.40
2018-01-27T02:34:37.229Z,38.70
2018-01-27T02:35:37.479Z,38.10
2018-01-27T02:36:37.143Z,38.80
2018-01-27T02:37:37.115Z,39.50
2018-01-27T02:38:37.086Z,37.20
2018-01-27T02:39:37.064Z,39.80
2018-01-27T02:40:37.028Z,37.10
2018-01-27T02:41:36.994Z,38.10
2018-01-27T02:42:36.967Z,37.30
2018-01-27T02:43:36.939Z,36.10
2018-01-27T02:44:36.910Z,36.60
2018-01-27T02:45:36.885Z,35.90
2018-01-27T02:46:36.849Z,33.30
2018-01-27T02:47:36.820Z,35.30
2018-01-27T02:48:36.794Z,39.40
2018-01-27T02:49:36.762Z,39.20
2018-01-27T02:50:36.735Z,31.40
2018-01-27T02:51:36.703Z,35.20
2018-01-27T02:52:36.664Z,39.40
2018-01-27T02:53:36.639Z,36.80
2018-01-27T02:54:36.611Z,35.10
2018-01-27T02:55:36.575Z,39.50
2018-01-27T02:56:36.551Z,38.90
2018-01-27T02:57:36.519Z,41.20
2018-01-27T02:58:36.492Z,42.40
2018-01-27T02:59:36.462Z,41.20
2018-01-27T03:00:36.433Z,42.90
2018-01-27T03:01:36.397Z,43.50
2018-01-27T03:02:36.377Z,45.40
2018-01-27T03:03:36.340Z,43.70
2018-01-27T03:04:36.661Z,46.40
2018-01-27T03:05:36.286Z,42.50
2018-01-27T03:06:36.250Z,41.50
2018-01-27T03:07:36.227Z,44.10
2018-01-27T03:08:36.193Z,41.10
2018-01-27T03:09:36.164Z,38.90
2018-01-27T03:10:36.980Z,40.90
2018-01-27T03:11:36.100Z,40.90
2018-01-27T03:12:36.072Z,38.10
2018-01-27T03:13:36.050Z,42.10
2018-01-27T03:14:36.017Z,41.20
2018-01-27T03:15:35.982Z,40.40
2018-01-27T03:16:35.955Z,40.10
2018-01-27T03:17:35.928Z,41.40
2018-01-27T03:18:35.899Z,41.00
2018-01-27T03:19:35.865Z,40.80
2018-01-27T03:20:35.838Z,39.10
2018-01-27T03:21:35.801Z,39.60
2018-01-27T03:22:35.776Z,40.30
2018-01-27T03:23:35.753Z,38.90
2018-01-27T03:24:35.715Z,39.30
2018-01-27T03:25:35.687Z,39.20
2018-01-27T03:26:35.655Z,38.40
2018-01-27T03:27:35.628Z,36.60
2018-01-27T03:28:35.602Z,37.20
2018-01-27T03:29:35.568Z,35.20
2018-01-27T03:30:35.541Z,36.40
2018-01-27T03:31:35.514Z,37.00
2018-01-27T03:32:35.479Z,38.30
2018-01-27T03:33:35.752Z,37.00
2018-01-27T03:34:35.417Z,34.80
2018-01-27T03:35:35.396Z,32.40
2018-01-27T03:36:35.356Z,33.10
2018-01-27T03:37:35.333Z,34.80
2018-01-27T03:38:35.298Z,33.20
2018-01-27T03:39:35.521Z,31.40
2018-01-27T03:40:35.242Z,32.70
2018-01-27T03:41:35.212Z,32.10
2018-01-27T03:42:35.179Z,31.90
2018-01-27T03:43:35.151Z,31.80
2018-01-27T03:44:35.126Z,32.20
2018-01-27T03:45:35.391Z,30.40
2018-01-27T03:46:35.069Z,31.80
2018-01-27T03:47:35.031Z,31.70
2018-01-27T03:48:35.006Z,31.90
2018-01-27T03:49:34.970Z,30.80
2018-01-27T03:50:34.957Z,31.10
2018-01-27T03:51:34.919Z,30.30
2018-01-27T03:52:34.894Z,30.80
2018-01-27T03:53:34.851Z,32.80
2018-01-27T03:54:34.818Z,32.40
2018-01-27T03:55:34.792Z,30.40
2018-01-27T03:56:34.766Z,32.60
2018-01-27T03:57:34.735Z,32.40
2018-01-27T03:58:34.706Z,34.40
2018-01-27T03:59:34.678Z,34.00
2018-01-27T04:00:34.649Z,34.30
2018-01-27T04:01:34.617Z,32.60
2018-01-27T04:02:34.584Z,32.80
2018-01-27T04:03:34.557Z,33.30
2018-01-27T04:04:34.526Z,35.80
2018-01-27T04:05:34.494Z,33.60
2018-01-27T04:06:34.478Z,32.40
2018-01-27T04:07:34.440Z,31.50
2018-01-27T04:08:34.407Z,29.70
2018-01-27T04:09:34.376Z,27.40
2018-01-27T04:10:34.347Z,28.00
2018-01-27T04:11:34.316Z,30.40
2018-01-27T04:12:34.292Z,32.00
2018-01-27T04:13:34.263Z,30.30
2018-01-27T04:14:34.226Z,30.60
2018-01-27T04:15:34.204Z,30.70
2018-01-27T04:16:34.173Z,32.10
2018-01-27T04:17:34.142Z,31.20
2018-01-27T04:18:34.117Z,32.30
2018-01-27T04:19:34.088Z,32.20
2018-01-27T04:20:34.348Z,31.60
2018-01-27T04:21:34.023Z,31.50
2018-01-27T04:22:33.999Z,31.50
2018-01-27T04:23:33.968Z,31.80
2018-01-27T04:24:33.931Z,32.90
2018-01-27T04:25:33.898Z,31.00
2018-01-27T04:26:33.880Z,29.70
2018-01-27T04:27:33.842Z,31.10
2018-01-27T04:28:33.818Z,29.40
2018-01-27T04:29:33.792Z,27.90
2018-01-27T04:30:33.754Z,28.60
2018-01-27T04:31:33.724Z,26.00
2018-01-27T04:32:33.704Z,27.20
2018-01-27T04:33:33.668Z,26.80
2018-01-27T04:34:33.644Z,30.60
2018-01-27T04:35:33.611Z,31.00
2018-01-27T04:36:33.576Z,30.40
2018-01-27T04:37:33.543Z,29.90
2018-01-27T04:38:33.521Z,29.70
2018-01-27T04:39:33.507Z,30.60
2018-01-27T04:40:33.457Z,32.00
2018-01-27T04:41:33.428Z,31.60
2018-01-27T04:42:33.394Z,32.00
2018-01-27T04:43:33.619Z,31.20
2018-01-27T04:44:33.347Z,30.50
2018-01-27T04:45:33.317Z,30.40
2018-01-27T04:46:33.276Z,29.60
2018-01-27T04:47:33.254Z,28.50
2018-01-27T04:48:33.229Z,28.10
2018-01-27T04:49:33.202Z,29.20
2018-01-27T04:50:33.164Z,29.00
2018-01-27T04:51:33.139Z,28.20
2018-01-27T04:52:33.100Z,28.40
2018-01-27T04:53:33.076Z,27.30
2018-01-27T04:54:33.054Z,25.20
2018-01-27T04:55:33.818Z,23.60
2018-01-27T04:56:32.984Z,24.90
2018-01-27T04:57:32.954Z,25.20
2018-01-27T04:58:32.924Z,24.10
2018-01-27T04:59:32.896Z,25.70
2018-01-27T05:00:32.873Z,27.50
2018-01-27T05:01:32.839Z,27.10
2018-01-27T05:02:32.816Z,28.70
2018-01-27T05:03:32.788Z,27.90
2018-01-27T05:04:32.754Z,26.00
2018-01-27T05:05:32.719Z,27.50
2018-01-27T05:06:32.687Z,25.90
2018-01-27T05:07:32.657Z,25.70
2018-01-27T05:08:32.635Z,28.00
2018-01-27T05:09:32.610Z,27.70
2018-01-27T05:10:32.575Z,26.70
2018-01-27T05:11:32.547Z,28.90
2018-01-27T05:12:32.519Z,27.30
2018-01-27T05:13:32.486Z,30.40
2018-01-27T05:14:32.466Z,30.90
2018-01-27T05:15:32.426Z,30.20
2018-01-27T05:16:32.401Z,29.90
2018-01-27T05:17:32.364Z,30.90
2018-01-27T05:18:32.338Z,26.90
2018-01-27T05:19:32.308Z,29.60
2018-01-27T05:20:32.279Z,28.50
2018-01-27T05:21:32.260Z,29.20
2018-01-27T05:22:32.222Z,30.40
2018-01-27T05:23:32.189Z,32.00
2018-01-27T05:24:32.164Z,32.00
2018-01-27T05:25:32.140Z,32.80
2018-01-27T05:26:32.100Z,32.80
2018-01-27T05:27:32.069Z,31.10
2018-01-27T05:28:32.047Z,29.80
2018-01-27T05:29:32.017Z,30.60
2018-01-27T05:30:32.005Z,31.10
2018-01-27T05:31:32.269Z,31.50
2018-01-27T05:32:31.929Z,28.60
2018-01-27T05:33:31.892Z,24.20
2018-01-27T05:34:31.871Z,27.80
2018-01-27T05:35:31.847Z,31.40
2018-01-27T05:36:31.806Z,30.80
2018-01-27T05:37:31.776Z,29.40
2018-01-27T05:38:31.744Z,30.90
2018-01-27T05:39:31.718Z,29.40
2018-01-27T05:40:31.696Z,32.60
2018-01-27T05:41:31.664Z,32.60
2018-01-27T05:42:31.635Z,32.80
2018-01-27T05:43:31.601Z,30.60
2018-01-27T05:44:31.574Z,30.50
2018-01-27T05:45:31.547Z,31.90
2018-01-27T05:46:31.525Z,31.00
2018-01-27T05:47:31.491Z,30.60
2018-01-27T05:48:31.704Z,30.00
2018-01-27T05:49:31.426Z,30.60
2018-01-27T05:50:31.401Z,29.50
2018-01-27T05:51:31.372Z,32.10
2018-01-27T05:52:31.339Z,28.60
2018-01-27T05:53:31.302Z,32.20
2018-01-27T05:54:31.277Z,31.00
2018-01-27T05:55:31.251Z,25.80
2018-01-27T05:56:31.220Z,22.80
2018-01-27T05:57:31.194Z,22.30
2018-01-27T05:58:31.158Z,26.70
2018-01-27T05:59:31.133Z,27.00
2018-01-27T06:00:31.405Z,29.00
2018-01-27T06:01:31.072Z,29.80
2018-01-27T06:02:31.051Z,33.80
2018-01-27T06:03:31.016Z,33.20
2018-01-27T06:04:30.981Z,32.00
2018-01-27T06:05:30.950Z,32.60
2018-01-27T06:06:30.931Z,34.50
2018-01-27T06:07:30.896Z,33.30
2018-01-27T06:08:30.866Z,31.70
2018-01-27T06:09:30.835Z,28.40
2018-01-27T06:10:30.806Z,27.50
2018-01-27T06:11:30.773Z,31.70
2018-01-27T06:12:30.752Z,32.40
2018-01-27T06:13:30.725Z,33.10
2018-01-27T06:14:30.687Z,31.90
2018-01-27T06:15:30.654Z,31.50
2018-01-27T06:16:30.635Z,32.20
2018-01-27T06:17:30.604Z,26.80
2018-01-27T06:18:30.572Z,30.00
2018-01-27T06:19:30.543Z,20.90
2018-01-27T06:20:30.508Z,25.90
2018-01-27T06:21:30.482Z,25.50
2018-01-27T06:22:30.458Z,24.70
2018-01-27T06:23:30.432Z,29.60
2018-01-27T06:24:30.391Z,25.30
2018-01-27T06:25:30.365Z,19.80
2018-01-27T06:26:30.330Z,20.10
2018-01-27T06:27:30.312Z,22.70
2018-01-27T06:28:30.282Z,22.70
2018-01-27T06:29:30.543Z,19.80
2018-01-27T06:30:30.218Z,24.20
2018-01-27T06:31:30.185Z,24.20
2018-01-27T06:32:30.157Z,27.10
2018-01-27T06:33:30.130Z,21.20
2018-01-27T06:34:30.096Z,23.00
2018-01-27T06:35:30.371Z,24.70
2018-01-27T06:36:30.038Z,25.50
2018-01-27T06:37:30.007Z,26.30
2018-01-27T06:38:29.981Z,27.20
2018-01-27T06:39:29.953Z,27.60
2018-01-27T06:40:29.929Z,26.30
2018-01-27T06:41:29.887Z,23.60
2018-01-27T06:42:29.858Z,23.90
2018-01-27T06:43:29.829Z,23.60
2018-01-27T06:44:29.802Z,27.60
2018-01-27T06:45:29.774Z,25.90
2018-01-27T06:46:30.093Z,25.30
2018-01-27T06:47:29.706Z,25.20
2018-01-27T06:48:29.680Z,25.00
2018-01-27T06:49:29.663Z,25.80
2018-01-27T06:50:29.623Z,20.50
2018-01-27T06:51:29.599Z,16.10
2018-01-27T06:52:29.560Z,24.80
2018-01-27T06:53:29.533Z,24.00
2018-01-27T06:54:29.506Z,27.40
2018-01-27T06:55:29.477Z,32.40
2018-01-27T06:56:29.441Z,27.60
2018-01-27T06:57:29.425Z,26.00
2018-01-27T06:58:29.381Z,27.10
2018-01-27T06:59:29.353Z,30.50
2018-01-27T07:00:29.332Z,29.20
2018-01-27T07:01:29.294Z,29.20
2018-01-27T07:02:29.270Z,24.80
2018-01-27T07:03:29.236Z,26.90
2018-01-27T07:04:29.218Z,27.80
2018-01-27T07:05:29.181Z,27.70
2018-01-27T07:06:29.151Z,28.20
2018-01-27T07:07:29.134Z,25.70
2018-01-27T07:08:29.091Z,26.50
2018-01-27T07:09:29.054Z,29.30
2018-01-27T07:10:29.029Z,27.20
2018-01-27T07:11:29.008Z,24.40
2018-01-27T07:12:28.980Z,22.50
2018-01-27T07:13:28.943Z,30.40
2018-01-27T07:14:28.914Z,30.80
2018-01-27T07:15:28.892Z,32.50
2018-01-27T07:16:28.857Z,32.10
2018-01-27T07:17:28.822Z,29.10
2018-01-27T07:18:28.804Z,25.90
2018-01-27T07:19:28.763Z,23.80
2018-01-27T07:20:29.032Z,22.50
2018-01-27T07:21:28.704Z,24.10
2018-01-27T07:22:28.680Z,26.10
2018-01-27T07:23:28.646Z,25.50
2018-01-27T07:24:28.621Z,24.40
2018-01-27T07:25:28.590Z,23.10
2018-01-27T07:26:28.565Z,22.80
2018-01-27T07:27:28.528Z,25.50
2018-01-27T07:28:28.502Z,19.90
2018-01-27T07:29:28.478Z,21.80
2018-01-27T07:30:28.438Z,19.00
2018-01-27T07:31:28.415Z,24.80
2018-01-27T07:32:28.375Z,25.90
2018-01-27T07:33:28.347Z,25.20
2018-01-27T07:34:28.333Z,27.50
2018-01-27T07:35:28.293Z,27.10
2018-01-27T07:36:28.259Z,27.90
2018-01-27T07:37:28.237Z,25.60
2018-01-27T07:38:28.505Z,25.50
2018-01-27T07:39:28.181Z,27.60
2018-01-27T07:40:28.149Z,26.50
2018-01-27T07:41:28.118Z,24.70
2018-01-27T07:42:28.085Z,24.00
2018-01-27T07:43:28.074Z,25.70
2018-01-27T07:44:28.033Z,23.00
2018-01-27T07:45:28.001Z,24.90
2018-01-27T07:46:27.975Z,25.60
2018-01-27T07:47:27.942Z,26.50
2018-01-27T07:48:27.913Z,25.60
2018-01-27T07:49:27.888Z,21.90
2018-01-27T07:50:28.107Z,22.80
2018-01-27T07:51:27.821Z,23.70
2018-01-27T07:52:27.790Z,24.50
2018-01-27T07:53:27.760Z,23.30
2018-01-27T07:54:27.733Z,24.80
2018-01-27T07:55:27.704Z,23.40
2018-01-27T07:56:27.978Z,21.40
2018-01-27T07:57:27.651Z,23.70
2018-01-27T07:58:27.612Z,20.80
2018-01-27T07:59:27.584Z,19.40
2018-01-27T08:00:27.559Z,22.50
2018-01-27T08:01:27.530Z,23.40
2018-01-27T08:02:27.503Z,22.70
2018-01-27T08:03:27.474Z,23.20
2018-01-27T08:04:27.448Z,23.40
2018-01-27T08:05:27.410Z,24.20
2018-01-27T08:06:27.381Z,23.80
2018-01-27T08:07:27.361Z,25.30
2018-01-27T08:08:27.335Z,25.60
2018-01-27T08:09:27.297Z,26.10
2018-01-27T08:10:27.258Z,26.20
2018-01-27T08:11:27.235Z,24.70
2018-01-27T08:12:27.204Z,24.60
2018-01-27T08:13:27.180Z,24.20
2018-01-27T08:14:27.448Z,20.10
2018-01-27T08:15:27.119Z,19.60
2018-01-27T08:16:27.097Z,20.30
2018-01-27T08:17:27.071Z,20.90
2018-01-27T08:18:27.033Z,21.50
2018-01-27T08:19:27.008Z,21.20
2018-01-27T08:20:26.968Z,19.40
2018-01-27T08:21:26.943Z,18.10
2018-01-27T08:22:26.919Z,18.40
2018-01-27T08:23:26.889Z,20.10
2018-01-27T08:24:26.858Z,18.50
2018-01-27T08:25:27.776Z,18.90
2018-01-27T08:26:26.798Z,17.90
2018-01-27T08:27:26.775Z,20.50
2018-01-27T08:28:26.739Z,19.30
2018-01-27T08:29:26.716Z,18.80
2018-01-27T08:30:26.680Z,18.20
2018-01-27T08:31:26.951Z,17.60
2018-01-27T08:32:26.621Z,14.70
2018-01-27T08:33:26.596Z,15.20
2018-01-27T08:34:26.568Z,15.60
2018-01-27T08:35:26.543Z,15.30
2018-01-27T08:36:26.506Z,14.90
2018-01-27T08:37:26.481Z,17.10
2018-01-27T08:38:26.457Z,17.90
2018-01-27T08:39:26.422Z,17.40
2018-01-27T08:40:26.396Z,17.50
2018-01-27T08:41:26.356Z,17.20
2018-01-27T08:42:26.335Z,18.20
2018-01-27T08:43:26.305Z,19.40
2018-01-27T08:44:26.277Z,12.30
2018-01-27T08:45:26.251Z,16.50
2018-01-27T08:46:26.216Z,14.50
2018-01-27T08:47:26.190Z,15.50
2018-01-27T08:48:26.165Z,18.00
2018-01-27T08:49:26.438Z,16.00
2018-01-27T08:50:26.103Z,16.20
2018-01-27T08:51:26.071Z,16.60
2018-01-27T08:52:26.050Z,18.80
2018-01-27T08:53:26.009Z,19.40
2018-01-27T08:54:25.988Z,16.30
2018-01-27T08:55:26.207Z,17.00
2018-01-27T08:56:25.931Z,14.70
2018-01-27T08:57:25.895Z,17.60
2018-01-27T08:58:25.864Z,15.90
2018-01-27T08:59:25.833Z,16.20
2018-01-27T09:00:25.814Z,14.70
2018-01-27T09:01:25.782Z,16.10
2018-01-27T09:02:25.747Z,19.60
2018-01-27T09:03:25.719Z,18.20
2018-01-27T09:04:25.699Z,16.40
2018-01-27T09:05:25.727Z,16.60
2018-01-27T09:06:25.641Z,19.00
2018-01-27T09:07:25.614Z,18.60
2018-01-27T09:08:25.576Z,18.80
2018-01-27T09:09:25.573Z,19.20
2018-01-27T09:10:25.517Z,19.10
2018-01-27T09:11:25.492Z,21.70
2018-01-27T09:12:25.456Z,25.20
2018-01-27T09:13:25.426Z,26.50
2018-01-27T09:14:25.409Z,21.40
2018-01-27T09:15:25.374Z,20.50
2018-01-27T09:16:25.352Z,22.50
2018-01-27T09:17:25.316Z,22.10
2018-01-27T09:18:25.293Z,22.20
2018-01-27T09:19:25.261Z,22.10
2018-01-27T09:20:25.236Z,24.70
2018-01-27T09:21:25.194Z,26.30
2018-01-27T09:22:25.168Z,27.40
2018-01-27T09:23:25.139Z,26.00
2018-01-27T09:24:25.119Z,26.10
2018-01-27T09:25:25.082Z,25.90
2018-01-27T09:26:25.056Z,22.00
2018-01-27T09:27:25.024Z,26.50
2018-01-27T09:28:24.999Z,23.90
2018-01-27T09:29:24.973Z,25.90
2018-01-27T09:30:24.940Z,25.80
2018-01-27T09:31:24.914Z,27.80
2018-01-27T09:32:24.874Z,25.70
2018-01-27T09:33:24.859Z,26.50
2018-01-27T09:34:24.828Z,18.50
2018-01-27T09:35:24.794Z,25.40
2018-01-27T09:36:25.070Z,22.90
2018-01-27T09:37:24.740Z,22.60
2018-01-27T09:38:24.707Z,23.60
2018-01-27T09:39:24.680Z,23.60
2018-01-27T09:40:24.654Z,22.60
2018-01-27T09:41:24.643Z,23.10
2018-01-27T09:42:24.602Z,22.20
2018-01-27T09:43:24.566Z,24.50
2018-01-27T09:44:24.536Z,25.30
2018-01-27T09:45:24.514Z,22.70
2018-01-27T09:46:24.486Z,24.90
2018-01-27T09:47:24.459Z,20.90
2018-01-27T09:48:24.423Z,21.70
2018-01-27T09:49:24.403Z,20.80
2018-01-27T09:50:24.372Z,21.80
2018-01-27T09:51:24.346Z,24.30
2018-01-27T09:52:24.312Z,22.80
2018-01-27T09:53:24.283Z,28.30
2018-01-27T09:54:24.250Z,26.20
2018-01-27T09:55:24.272Z,26.70
2018-01-27T09:56:24.206Z,28.90
2018-01-27T09:57:24.172Z,29.80
2018-01-27T09:58:24.156Z,25.30
2018-01-27T09:59:24.119Z,24.90
2018-01-27T10:00:24.098Z,23.30
2018-01-27T10:01:24.065Z,20.10
2018-01-27T10:02:24.033Z,23.10
2018-01-27T10:03:24.005Z,27.60
2018-01-27T10:04:24.326Z,28.10
2018-01-27T10:05:23.940Z,28.80
2018-01-27T10:06:23.919Z,26.30
2018-01-27T10:07:23.889Z,24.10
2018-01-27T10:08:23.862Z,25.90
2018-01-27T10:09:23.830Z,27.20
2018-01-27T10:10:23.815Z,22.20
2018-01-27T10:11:23.776Z,23.00
2018-01-27T10:12:23.755Z,25.20
2018-01-27T10:13:23.726Z,27.30
2018-01-27T10:14:23.696Z,29.80
2018-01-27T10:15:23.665Z,31.50
2018-01-27T10:16:23.643Z,27.00
2018-01-27T10:17:23.629Z,26.20
2018-01-27T10:18:23.586Z,29.20
2018-01-27T10:19:23.558Z,23.90
2018-01-27T10:20:23.531Z,27.40
2018-01-27T10:21:23.501Z,26.10
2018-01-27T10:22:23.829Z,21.60
2018-01-27T10:23:23.441Z,23.00
2018-01-27T10:24:23.411Z,25.60
2018-01-27T10:25:23.379Z,22.70
2018-01-27T10:26:23.357Z,25.50
2018-01-27T10:27:23.328Z,22.90
2018-01-27T10:28:23.305Z,20.10
2018-01-27T10:29:23.308Z,22.80
2018-01-27T10:30:23.239Z,20.90
2018-01-27T10:31:23.215Z,23.40
2018-01-27T10:32:23.189Z,21.60
2018-01-27T10:33:23.166Z,22.60
2018-01-27T10:34:23.137Z,21.30
2018-01-27T10:35:23.109Z,17.00
2018-01-27T10:36:23.078Z,20.80
2018-01-27T10:37:23.062Z,21.10
2018-01-27T10:38:23.073Z,22.40
2018-01-27T10:39:22.996Z,23.10
2018-01-27T10:40:23.268Z,23.80
2018-01-27T10:41:22.936Z,19.50
2018-01-27T10:42:22.904Z,20.40
2018-01-27T10:43:22.877Z,17.80
2018-01-27T10:44:22.863Z,19.70
2018-01-27T10:45:22.825Z,18.70
2018-01-27T10:46:22.795Z,16.90
2018-01-27T10:47:22.770Z,15.40
2018-01-27T10:48:22.742Z,12.60
2018-01-27T10:49:22.717Z,13.40
2018-01-27T10:50:22.689Z,14.80
2018-01-27T10:51:22.657Z,13.00
2018-01-27T10:52:22.630Z,14.00
2018-01-27T10:53:22.601Z,13.40
2018-01-27T10:54:22.579Z,16.70
2018-01-27T10:55:22.549Z,15.50
2018-01-27T10:56:22.523Z,14.60
2018-01-27T10:57:22.494Z,13.60
2018-01-27T10:58:22.470Z,14.80
2018-01-27T10:59:22.436Z,16.40
2018-01-27T11:00:22.414Z,12.40
2018-01-27T11:01:22.388Z,12.70
2018-01-27T11:02:22.351Z,14.10
2018-01-27T11:03:22.336Z,14.10
2018-01-27T11:04:22.323Z,18.00
2018-01-27T11:05:22.277Z,16.60
2018-01-27T11:06:22.251Z,14.20
2018-01-27T11:07:22.223Z,15.20
2018-01-27T11:08:22.189Z,19.20
2018-01-27T11:09:22.163Z,18.20
2018-01-27T11:10:22.144Z,15.40
2018-01-27T11:11:22.115Z,15.30
2018-01-27T11:12:22.083Z,19.50
2018-01-27T11:13:22.055Z,17.30
2018-01-27T11:14:22.035Z,18.60
2018-01-27T11:15:22.309Z,15.20
2018-01-27T11:16:21.980Z,16.80
2018-01-27T11:17:21.958Z,13.50
2018-01-27T11:18:21.920Z,15.40
2018-01-27T11:19:21.893Z,17.10
2018-01-27T11:20:21.871Z,17.50
2018-01-27T11:21:21.843Z,13.00
2018-01-27T11:22:21.821Z,10.70
2018-01-27T11:23:21.788Z,12.10
2018-01-27T11:24:21.755Z,12.40
2018-01-27T11:25:21.732Z,13.60
2018-01-27T11:26:21.698Z,13.10
2018-01-27T11:27:21.670Z,15.70
2018-01-27T11:28:21.654Z,14.50
2018-01-27T11:29:21.619Z,12.90
2018-01-27T11:30:21.603Z,12.50
2018-01-27T11:31:21.573Z,14.70
2018-01-27T11:32:21.536Z,19.00
2018-01-27T11:33:21.509Z,15.40
2018-01-27T11:34:21.486Z,16.00
2018-01-27T11:35:21.454Z,17.20
2018-01-27T11:36:21.421Z,21.40
2018-01-27T11:37:21.393Z,16.70
2018-01-27T11:38:21.382Z,16.40
2018-01-27T11:39:21.345Z,15.10
2018-01-27T11:40:21.323Z,15.70
2018-01-27T11:41:21.289Z,16.20
2018-01-27T11:42:21.256Z,21.00
2018-01-27T11:43:21.228Z,22.30
2018-01-27T11:44:21.202Z,22.20
2018-01-27T11:45:21.181Z,21.50
2018-01-27T11:46:21.157Z,19.50
2018-01-27T11:47:21.122Z,18.50
2018-01-27T11:48:21.085Z,21.70
2018-01-27T11:49:21.057Z,15.70
2018-01-27T11:50:21.050Z,21.20
2018-01-27T11:51:21.013Z,15.20
2018-01-27T11:52:20.976Z,19.70
2018-01-27T11:53:20.984Z,20.60
2018-01-27T11:54:20.920Z,16.80
2018-01-27T11:55:20.887Z,24.00
2018-01-27T11:56:20.867Z,22.80
2018-01-27T11:57:20.838Z,17.70
2018-01-27T11:58:20.807Z,13.70
2018-01-27T11:59:20.785Z,19.60
2018-01-27T12:00:20.754Z,20.50
2018-01-27T12:01:20.740Z,20.20
2018-01-27T12:02:20.703Z,19.60
2018-01-27T12:03:20.671Z,20.50
2018-01-27T12:04:20.639Z,19.10
2018-01-27T12:05:20.612Z,16.70
2018-01-27T12:06:20.597Z,19.70
2018-01-27T12:07:20.590Z,23.40
2018-01-27T12:08:20.521Z,25.00
2018-01-27T12:09:20.495Z,20.70
2018-01-27T12:10:20.473Z,22.40
2018-01-27T12:11:20.441Z,18.00
2018-01-27T12:12:20.415Z,17.50
2018-01-27T12:13:20.391Z,17.80
2018-01-27T12:14:20.356Z,16.00
2018-01-27T12:15:20.330Z,16.50
2018-01-27T12:16:20.318Z,19.40
2018-01-27T12:17:20.283Z,18.00
2018-01-27T12:18:20.252Z,21.10
2018-01-27T12:19:20.226Z,17.70
2018-01-27T12:20:20.187Z,18.00
2018-01-27T12:21:20.159Z,17.10
2018-01-27T12:22:20.136Z,22.20
2018-01-27T12:23:20.116Z,18.00
2018-01-27T12:24:20.074Z,16.60
2018-01-27T12:25:20.051Z,17.10
2018-01-27T12:26:20.021Z,17.90
2018-01-27T12:27:19.989Z,22.10
2018-01-27T12:28:19.968Z,21.80
2018-01-27T12:29:19.943Z,17.30
2018-01-27T12:30:19.906Z,18.10
2018-01-27T12:31:19.888Z,17.30
2018-01-27T12:32:19.851Z,20.70
2018-01-27T12:33:19.825Z,16.80
2018-01-27T12:34:19.802Z,19.50
2018-01-27T12:35:19.775Z,15.40
2018-01-27T12:36:19.736Z,19.40
2018-01-27T12:37:19.722Z,22.60
2018-01-27T12:38:19.690Z,18.10
2018-01-27T12:39:19.663Z,20.30
2018-01-27T12:40:19.624Z,18.00
2018-01-27T12:41:19.595Z,18.10
2018-01-27T12:42:19.573Z,17.90
2018-01-27T12:43:19.549Z,16.90
2018-01-27T12:44:19.518Z,19.20
2018-01-27T12:45:19.497Z,21.30
2018-01-27T12:46:19.453Z,24.10
2018-01-27T12:47:19.432Z,18.30
2018-01-27T12:48:19.404Z,16.20
2018-01-27T12:49:19.381Z,15.80
2018-01-27T12:50:19.397Z,19.20
2018-01-27T12:51:19.336Z,17.70
2018-01-27T12:52:19.293Z,16.50